sensor_id;sensor_type;location;lat;lon;timestamp;pressure;altitude;pressure_sealevel;temperature;humidity
11682;BME280;5897;42.640;23.310;2024-02-26T00:02:20;93475.34;;;8.49;100.00
11682;BME280;5897;42.640;23.310;2024-02-26T00:04:47;93470.22;;;8.39;100.00
11682;BME280;5897;42.640;23.310;2024-02-26T00:07:16;93473.19;;;8.28;100.00
11682;BME280;5897;42.640;23.310;2024-02-26T00:09:44;93460.88;;;8.43;100.00
11682;BME280;5897;42.640;23.310;2024-02-26T00:12:11;93464.25;;;8.47;100.00
11682;BME280;5897;42.640;23.310;2024-02-26T00:14:37;93462.34;;;8.60;100.00
11682;BME280;5897;42.640;23.310;2024-02-26T00:17:04;93469.09;;;8.68;100.00
11682;BME280;5897;42.640;23.310;2024-02-26T00:19:31;93474.78;;;8.70;100.00
11682;BME280;5897;42.640;23.310;2024-02-26T00:21:57;93462.75;;;8.75;100.00
11682;BME280;5897;42.640;23.310;2024-02-26T00:24:27;93433.56;;;8.73;100.00
11682;BME280;5897;42.640;23.310;2024-02-26T00:26:55;93456.03;;;8.95;100.00
11682;BME280;5897;42.640;23.310;2024-02-26T00:29:22;93460.06;;;9.03;100.00
11682;BME280;5897;42.640;23.310;2024-02-26T00:31:51;93459.53;;;9.08;100.00
11682;BME280;5897;42.640;23.310;2024-02-26T00:34:18;93451.34;;;9.12;100.00
11682;BME280;5897;42.640;23.310;2024-02-26T00:36:44;93449.94;;;9.20;100.00
11682;BME280;5897;42.640;23.310;2024-02-26T00:39:11;93444.44;;;9.23;100.00
11682;BME280;5897;42.640;23.310;2024-02-26T00:41:38;93444.69;;;9.29;100.00
11682;BME280;5897;42.640;23.310;2024-02-26T00:44:07;93444.28;;;9.30;100.00
11682;BME280;5897;42.640;23.310;2024-02-26T00:46:34;93436.50;;;9.32;100.00
11682;BME280;5897;42.640;23.310;2024-02-26T00:49:02;93428.81;;;9.18;100.00
11682;BME280;5897;42.640;23.310;2024-02-26T00:51:29;93430.34;;;9.19;100.00
11682;BME280;5897;42.640;23.310;2024-02-26T00:53:55;93430.22;;;9.10;100.00
11682;BME280;5897;42.640;23.310;2024-02-26T00:56:22;93426.63;;;9.01;100.00
11682;BME280;5897;42.640;23.310;2024-02-26T00:58:49;93416.72;;;9.10;100.00
11682;BME280;5897;42.640;23.310;2024-02-26T01:01:17;93417.94;;;9.22;100.00
11682;BME280;5897;42.640;23.310;2024-02-26T01:03:43;93421.84;;;9.33;100.00
11682;BME280;5897;42.640;23.310;2024-02-26T01:06:10;93402.00;;;9.40;100.00
11682;BME280;5897;42.640;23.310;2024-02-26T01:08:37;93411.50;;;9.44;100.00
11682;BME280;5897;42.640;23.310;2024-02-26T01:11:04;93413.44;;;9.56;100.00
11682;BME280;5897;42.640;23.310;2024-02-26T01:13:31;93400.72;;;9.57;100.00
11682;BME280;5897;42.640;23.310;2024-02-26T01:16:00;93403.19;;;9.64;100.00
11682;BME280;5897;42.640;23.310;2024-02-26T01:18:29;93407.31;;;9.56;100.00
11682;BME280;5897;42.640;23.310;2024-02-26T01:20:58;93420.88;;;9.65;100.00
11682;BME280;5897;42.640;23.310;2024-02-26T01:23:25;93412.44;;;9.75;100.00
11682;BME280;5897;42.640;23.310;2024-02-26T01:25:52;93411.47;;;9.82;100.00
11682;BME280;5897;42.640;23.310;2024-02-26T01:28:18;93409.56;;;9.82;100.00
11682;BME280;5897;42.640;23.310;2024-02-26T01:30:47;93401.13;;;9.80;100.00
11682;BME280;5897;42.640;23.310;2024-02-26T01:33:14;93411.38;;;9.85;100.00
11682;BME280;5897;42.640;23.310;2024-02-26T01:35:42;93411.78;;;9.84;100.00
11682;BME280;5897;42.640;23.310;2024-02-26T01:38:08;93404.28;;;9.79;100.00
11682;BME280;5897;42.640;23.310;2024-02-26T01:40:35;93401.88;;;9.81;100.00
11682;BME280;5897;42.640;23.310;2024-02-26T01:43:02;93406.72;;;9.86;100.00
11682;BME280;5897;42.640;23.310;2024-02-26T01:45:28;93404.69;;;9.65;100.00
11682;BME280;5897;42.640;23.310;2024-02-26T01:47:55;93404.69;;;9.65;100.00
11682;BME280;5897;42.640;23.310;2024-02-26T01:50:23;93408.47;;;9.67;100.00
11682;BME280;5897;42.640;23.310;2024-02-26T01:52:52;93401.78;;;9.59;100.00
11682;BME280;5897;42.640;23.310;2024-02-26T01:55:20;93405.00;;;9.67;100.00
11682;BME280;5897;42.640;23.310;2024-02-26T01:57:50;93394.56;;;9.69;100.00
11682;BME280;5897;42.640;23.310;2024-02-26T02:00:18;93395.75;;;9.55;100.00
11682;BME280;5897;42.640;23.310;2024-02-26T02:02:46;93388.84;;;9.54;100.00
11682;BME280;5897;42.640;23.310;2024-02-26T02:05:17;93386.88;;;9.55;100.00
11682;BME280;5897;42.640;23.310;2024-02-26T02:07:45;93391.00;;;9.59;100.00
11682;BME280;5897;42.640;23.310;2024-02-26T02:10:15;93390.00;;;9.66;100.00
11682;BME280;5897;42.640;23.310;2024-02-26T02:12:43;93392.41;;;9.64;100.00
11682;BME280;5897;42.640;23.310;2024-02-26T02:15:10;93392.28;;;9.67;100.00
11682;BME280;5897;42.640;23.310;2024-02-26T02:17:37;93387.56;;;9.71;100.00
11682;BME280;5897;42.640;23.310;2024-02-26T02:20:15;93379.22;;;9.66;100.00
11682;BME280;5897;42.640;23.310;2024-02-26T02:22:44;93389.25;;;9.78;100.00
11682;BME280;5897;42.640;23.310;2024-02-26T02:25:11;93392.47;;;9.85;100.00
11682;BME280;5897;42.640;23.310;2024-02-26T02:27:38;93366.72;;;9.72;100.00
11682;BME280;5897;42.640;23.310;2024-02-26T02:30:06;93390.97;;;9.84;100.00
11682;BME280;5897;42.640;23.310;2024-02-26T02:32:34;93387.19;;;9.82;100.00
11682;BME280;5897;42.640;23.310;2024-02-26T02:35:02;93395.72;;;9.80;100.00
11682;BME280;5897;42.640;23.310;2024-02-26T02:37:29;93403.59;;;9.87;100.00
11682;BME280;5897;42.640;23.310;2024-02-26T02:39:59;93398.97;;;9.75;100.00
11682;BME280;5897;42.640;23.310;2024-02-26T02:42:31;93391.63;;;9.76;100.00
11682;BME280;5897;42.640;23.310;2024-02-26T02:44:58;93387.22;;;9.69;100.00
11682;BME280;5897;42.640;23.310;2024-02-26T02:47:25;93386.78;;;9.71;100.00
11682;BME280;5897;42.640;23.310;2024-02-26T02:49:51;93404.69;;;9.77;100.00
11682;BME280;5897;42.640;23.310;2024-02-26T02:52:18;93410.28;;;9.83;100.00
11682;BME280;5897;42.640;23.310;2024-02-26T02:54:45;93414.19;;;9.82;100.00
11682;BME280;5897;42.640;23.310;2024-02-26T02:57:15;93405.00;;;9.79;100.00
11682;BME280;5897;42.640;23.310;2024-02-26T02:59:48;93407.69;;;9.79;100.00
11682;BME280;5897;42.640;23.310;2024-02-26T03:02:17;93402.31;;;9.79;100.00
11682;BME280;5897;42.640;23.310;2024-02-26T03:04:44;93404.78;;;9.86;100.00
11682;BME280;5897;42.640;23.310;2024-02-26T03:07:10;93411.72;;;9.87;100.00
11682;BME280;5897;42.640;23.310;2024-02-26T03:09:37;93403.81;;;9.93;100.00
11682;BME280;5897;42.640;23.310;2024-02-26T03:12:04;93417.94;;;9.84;100.00
11682;BME280;5897;42.640;23.310;2024-02-26T03:14:32;93409.97;;;9.81;100.00
11682;BME280;5897;42.640;23.310;2024-02-26T03:16:59;93414.59;;;9.80;100.00
11682;BME280;5897;42.640;23.310;2024-02-26T03:19:25;93412.03;;;9.77;100.00
11682;BME280;5897;42.640;23.310;2024-02-26T03:21:52;93402.72;;;9.78;100.00
11682;BME280;5897;42.640;23.310;2024-02-26T03:24:19;93397.25;;;9.81;100.00
11682;BME280;5897;42.640;23.310;2024-02-26T03:26:48;93390.56;;;9.73;100.00
11682;BME280;5897;42.640;23.310;2024-02-26T03:29:19;93388.16;;;9.75;100.00
11682;BME280;5897;42.640;23.310;2024-02-26T03:31:47;93381.81;;;9.82;100.00
11682;BME280;5897;42.640;23.310;2024-02-26T03:34:16;93376.81;;;9.93;100.00
11682;BME280;5897;42.640;23.310;2024-02-26T03:36:45;93374.97;;;10.02;100.00
11682;BME280;5897;42.640;23.310;2024-02-26T03:39:14;93371.31;;;9.96;100.00
11682;BME280;5897;42.640;23.310;2024-02-26T03:41:41;93388.38;;;10.06;100.00
11682;BME280;5897;42.640;23.310;2024-02-26T03:44:09;93375.84;;;9.99;100.00
11682;BME280;5897;42.640;23.310;2024-02-26T03:46:39;93378.66;;;10.08;100.00
11682;BME280;5897;42.640;23.310;2024-02-26T03:49:09;93377.03;;;10.11;100.00
11682;BME280;5897;42.640;23.310;2024-02-26T03:51:36;93382.44;;;10.11;100.00
11682;BME280;5897;42.640;23.310;2024-02-26T03:54:03;93376.06;;;10.05;100.00
11682;BME280;5897;42.640;23.310;2024-02-26T03:56:29;93378.66;;;10.08;100.00
11682;BME280;5897;42.640;23.310;2024-02-26T03:58:56;93381.47;;;10.05;100.00
11682;BME280;5897;42.640;23.310;2024-02-26T04:01:30;93376.41;;;10.07;100.00
11682;BME280;5897;42.640;23.310;2024-02-26T04:03:59;93374.13;;;10.05;100.00
11682;BME280;5897;42.640;23.310;2024-02-26T04:06:30;93369.03;;;9.95;100.00
11682;BME280;5897;42.640;23.310;2024-02-26T04:08:57;93373.69;;;9.94;100.00
11682;BME280;5897;42.640;23.310;2024-02-26T04:11:29;93377.91;;;9.95;100.00
11682;BME280;5897;42.640;23.310;2024-02-26T04:13:58;93374.56;;;9.91;100.00
11682;BME280;5897;42.640;23.310;2024-02-26T04:16:25;93369.03;;;9.95;100.00
11682;BME280;5897;42.640;23.310;2024-02-26T04:18:51;93370.47;;;9.87;100.00
11682;BME280;5897;42.640;23.310;2024-02-26T04:21:18;93368.44;;;9.66;100.00
11682;BME280;5897;42.640;23.310;2024-02-26T04:23:49;93367.69;;;9.65;100.00
11682;BME280;5897;42.640;23.310;2024-02-26T04:26:20;93361.78;;;9.70;100.00
11682;BME280;5897;42.640;23.310;2024-02-26T04:28:50;93344.63;;;9.64;100.00
11682;BME280;5897;42.640;23.310;2024-02-26T04:31:17;93356.25;;;9.74;100.00
11682;BME280;5897;42.640;23.310;2024-02-26T04:33:46;93347.28;;;9.77;100.00
11682;BME280;5897;42.640;23.310;2024-02-26T04:36:13;93352.69;;;9.77;100.00
11682;BME280;5897;42.640;23.310;2024-02-26T04:38:40;93357.88;;;9.71;100.00
11682;BME280;5897;42.640;23.310;2024-02-26T04:41:09;93352.06;;;9.73;100.00
11682;BME280;5897;42.640;23.310;2024-02-26T04:43:38;93364.34;;;9.74;100.00
11682;BME280;5897;42.640;23.310;2024-02-26T04:46:07;93356.81;;;9.69;100.00
11682;BME280;5897;42.640;23.310;2024-02-26T04:48:36;93357.34;;;9.76;100.00
11682;BME280;5897;42.640;23.310;2024-02-26T04:51:04;93355.31;;;9.68;100.00
11682;BME280;5897;42.640;23.310;2024-02-26T04:53:33;93372.00;;;9.75;100.00
11682;BME280;5897;42.640;23.310;2024-02-26T04:56:00;93370.59;;;9.71;100.00
11682;BME280;5897;42.640;23.310;2024-02-26T04:58:28;93368.13;;;9.76;100.00
11682;BME280;5897;42.640;23.310;2024-02-26T05:00:57;93374.38;;;9.73;100.00
11682;BME280;5897;42.640;23.310;2024-02-26T05:03:24;93374.25;;;9.77;100.00
11682;BME280;5897;42.640;23.310;2024-02-26T05:05:50;93383.88;;;9.65;100.00
11682;BME280;5897;42.640;23.310;2024-02-26T05:08:17;93387.78;;;9.64;100.00
11682;BME280;5897;42.640;23.310;2024-02-26T05:10:47;93387.53;;;9.59;100.00
11682;BME280;5897;42.640;23.310;2024-02-26T05:13:17;93392.16;;;9.58;100.00
11682;BME280;5897;42.640;23.310;2024-02-26T05:15:45;93393.72;;;9.59;100.00
11682;BME280;5897;42.640;23.310;2024-02-26T05:18:14;93396.50;;;9.56;100.00
11682;BME280;5897;42.640;23.310;2024-02-26T05:20:43;93403.06;;;9.67;100.00
11682;BME280;5897;42.640;23.310;2024-02-26T05:23:10;93400.69;;;9.69;100.00
11682;BME280;5897;42.640;23.310;2024-02-26T05:25:37;93407.28;;;9.68;100.00
11682;BME280;5897;42.640;23.310;2024-02-26T05:28:04;93392.94;;;9.59;100.00
11682;BME280;5897;42.640;23.310;2024-02-26T05:30:31;93412.56;;;9.72;100.00
11682;BME280;5897;42.640;23.310;2024-02-26T05:32:59;93416.25;;;9.65;100.00
11682;BME280;5897;42.640;23.310;2024-02-26T05:35:25;93423.03;;;9.70;100.00
11682;BME280;5897;42.640;23.310;2024-02-26T05:37:52;93420.53;;;9.75;100.00
11682;BME280;5897;42.640;23.310;2024-02-26T05:40:19;93425.50;;;9.77;100.00
11682;BME280;5897;42.640;23.310;2024-02-26T05:42:48;93399.22;;;9.56;100.00
11682;BME280;5897;42.640;23.310;2024-02-26T05:45:15;93439.41;;;9.75;100.00
11682;BME280;5897;42.640;23.310;2024-02-26T05:47:42;93429.41;;;9.76;100.00
11682;BME280;5897;42.640;23.310;2024-02-26T05:50:11;93425.50;;;9.77;100.00
11682;BME280;5897;42.640;23.310;2024-02-26T05:52:38;93425.84;;;9.79;100.00
11682;BME280;5897;42.640;23.310;2024-02-26T05:55:08;93425.06;;;9.78;100.00
11682;BME280;5897;42.640;23.310;2024-02-26T05:57:36;93428.75;;;9.84;100.00
11682;BME280;5897;42.640;23.310;2024-02-26T06:00:03;93433.38;;;9.84;100.00
11682;BME280;5897;42.640;23.310;2024-02-26T06:02:30;93434.78;;;9.88;100.00
11682;BME280;5897;42.640;23.310;2024-02-26T06:04:57;93436.72;;;9.88;100.00
11682;BME280;5897;42.640;23.310;2024-02-26T06:07:25;93442.53;;;9.86;100.00
11682;BME280;5897;42.640;23.310;2024-02-26T06:09:52;93442.00;;;9.91;100.00
11682;BME280;5897;42.640;23.310;2024-02-26T06:12:19;93437.91;;;9.87;100.00
11682;BME280;5897;42.640;23.310;2024-02-26T06:14:48;93442.66;;;9.95;100.00
11682;BME280;5897;42.640;23.310;2024-02-26T06:17:14;93449.28;;;10.41;100.00
11682;BME280;5897;42.640;23.310;2024-02-26T06:19:41;93445.91;;;10.49;100.00
11682;BME280;5897;42.640;23.310;2024-02-26T06:22:11;93441.03;;;10.57;100.00
11682;BME280;5897;42.640;23.310;2024-02-26T06:24:39;93443.50;;;10.98;100.00
11682;BME280;5897;42.640;23.310;2024-02-26T06:27:05;93449.63;;;10.98;100.00
11682;BME280;5897;42.640;23.310;2024-02-26T06:29:35;93442.47;;;10.83;100.00
11682;BME280;5897;42.640;23.310;2024-02-26T06:32:02;93438.06;;;10.76;100.00
11682;BME280;5897;42.640;23.310;2024-02-26T06:34:29;93433.75;;;10.66;100.00
11682;BME280;5897;42.640;23.310;2024-02-26T06:36:55;93445.88;;;10.62;100.00
11682;BME280;5897;42.640;23.310;2024-02-26T06:39:22;93425.75;;;10.41;100.00
11682;BME280;5897;42.640;23.310;2024-02-26T06:41:50;93438.03;;;10.55;100.00
11682;BME280;5897;42.640;23.310;2024-02-26T06:44:25;93445.06;;;10.52;100.00
11682;BME280;5897;42.640;23.310;2024-02-26T06:46:57;93452.72;;;10.54;100.00
11682;BME280;5897;42.640;23.310;2024-02-26T06:49:23;93449.13;;;10.57;100.00
11682;BME280;5897;42.640;23.310;2024-02-26T06:51:50;93454.66;;;10.53;100.00
11682;BME280;5897;42.640;23.310;2024-02-26T06:54:17;93439.91;;;10.45;100.00
11682;BME280;5897;42.640;23.310;2024-02-26T06:56:43;93441.16;;;10.53;100.00
11682;BME280;5897;42.640;23.310;2024-02-26T06:59:12;93444.94;;;10.56;100.00
11682;BME280;5897;42.640;23.310;2024-02-26T07:01:40;93446.00;;;10.58;100.00
11682;BME280;5897;42.640;23.310;2024-02-26T07:04:06;93435.63;;;10.57;100.00
11682;BME280;5897;42.640;23.310;2024-02-26T07:06:34;93443.94;;;10.62;100.00
11682;BME280;5897;42.640;23.310;2024-02-26T07:09:00;93451.81;;;10.69;100.00
11682;BME280;5897;42.640;23.310;2024-02-26T07:11:27;93452.13;;;10.71;100.00
11682;BME280;5897;42.640;23.310;2024-02-26T07:13:54;93449.63;;;10.77;100.00
11682;BME280;5897;42.640;23.310;2024-02-26T07:16:22;93460.44;;;10.77;100.00
11682;BME280;5897;42.640;23.310;2024-02-26T07:18:48;93453.31;;;10.70;100.00
11682;BME280;5897;42.640;23.310;2024-02-26T07:21:15;93452.00;;;10.75;100.00
11682;BME280;5897;42.640;23.310;2024-02-26T07:23:42;93459.66;;;10.76;100.00
11682;BME280;5897;42.640;23.310;2024-02-26T07:26:08;93461.16;;;10.77;100.00
11682;BME280;5897;42.640;23.310;2024-02-26T07:28:37;93457.91;;;10.82;100.00
11682;BME280;5897;42.640;23.310;2024-02-26T07:31:03;93457.28;;;10.78;100.00
11682;BME280;5897;42.640;23.310;2024-02-26T07:33:32;93460.56;;;10.95;100.00
11682;BME280;5897;42.640;23.310;2024-02-26T07:35:59;93461.06;;;11.02;99.96
11682;BME280;5897;42.640;23.310;2024-02-26T07:38:26;93462.03;;;11.08;98.90
11682;BME280;5897;42.640;23.310;2024-02-26T07:40:53;93460.91;;;11.18;98.41
11682;BME280;5897;42.640;23.310;2024-02-26T07:43:19;93458.81;;;11.22;98.18
11682;BME280;5897;42.640;23.310;2024-02-26T07:45:46;93452.25;;;11.32;97.80
11682;BME280;5897;42.640;23.310;2024-02-26T07:48:15;93453.16;;;11.29;98.46
11682;BME280;5897;42.640;23.310;2024-02-26T07:50:45;93457.41;;;11.39;98.88
11682;BME280;5897;42.640;23.310;2024-02-26T07:53:12;93462.81;;;11.39;98.99
11682;BME280;5897;42.640;23.310;2024-02-26T07:55:39;93450.94;;;11.37;99.23
11682;BME280;5897;42.640;23.310;2024-02-26T07:58:06;93459.97;;;11.43;99.65
11682;BME280;5897;42.640;23.310;2024-02-26T08:00:32;93438.66;;;11.45;99.14
11682;BME280;5897;42.640;23.310;2024-02-26T08:02:59;93450.09;;;11.48;97.68
11682;BME280;5897;42.640;23.310;2024-02-26T08:05:26;93455.41;;;11.31;97.94
11682;BME280;5897;42.640;23.310;2024-02-26T08:07:56;93459.50;;;11.35;98.79
11682;BME280;5897;42.640;23.310;2024-02-26T08:10:23;93451.00;;;11.46;98.98
11682;BME280;5897;42.640;23.310;2024-02-26T08:12:53;93448.66;;;11.57;98.43
11682;BME280;5897;42.640;23.310;2024-02-26T08:15:21;93448.84;;;11.62;97.18
11682;BME280;5897;42.640;23.310;2024-02-26T08:17:48;93453.53;;;11.71;96.98
11682;BME280;5897;42.640;23.310;2024-02-26T08:20:15;93422.41;;;11.66;96.43
11682;BME280;5897;42.640;23.310;2024-02-26T08:22:41;93455.00;;;11.93;95.10
11682;BME280;5897;42.640;23.310;2024-02-26T08:25:12;93426.41;;;11.83;94.16
11682;BME280;5897;42.640;23.310;2024-02-26T08:27:41;93449.75;;;11.59;94.67
11682;BME280;5897;42.640;23.310;2024-02-26T08:30:08;93435.84;;;11.79;94.91
11682;BME280;5897;42.640;23.310;2024-02-26T08:32:35;93440.03;;;12.10;92.87
11682;BME280;5897;42.640;23.310;2024-02-26T08:35:02;93437.47;;;12.15;91.10
11682;BME280;5897;42.640;23.310;2024-02-26T08:37:29;93436.00;;;12.23;89.79
11682;BME280;5897;42.640;23.310;2024-02-26T08:39:56;93444.78;;;12.45;87.83
11682;BME280;5897;42.640;23.310;2024-02-26T08:42:24;93443.25;;;12.44;87.77
11682;BME280;5897;42.640;23.310;2024-02-26T08:44:53;93450.94;;;12.46;87.32
11682;BME280;5897;42.640;23.310;2024-02-26T08:47:20;93432.09;;;12.33;87.14
11682;BME280;5897;42.640;23.310;2024-02-26T08:49:49;93440.72;;;12.50;86.17
11682;BME280;5897;42.640;23.310;2024-02-26T08:52:16;93441.00;;;12.43;87.24
11682;BME280;5897;42.640;23.310;2024-02-26T08:54:42;93434.97;;;12.39;86.86
11682;BME280;5897;42.640;23.310;2024-02-26T08:57:09;93443.75;;;12.61;86.36
11682;BME280;5897;42.640;23.310;2024-02-26T08:59:37;93437.13;;;12.62;86.66
11682;BME280;5897;42.640;23.310;2024-02-26T09:02:04;93432.31;;;12.66;85.45
11682;BME280;5897;42.640;23.310;2024-02-26T09:04:30;93439.53;;;12.60;84.71
11682;BME280;5897;42.640;23.310;2024-02-26T09:06:57;93433.19;;;12.63;84.83
11682;BME280;5897;42.640;23.310;2024-02-26T09:09:24;93429.59;;;12.66;84.45
11682;BME280;5897;42.640;23.310;2024-02-26T09:11:51;93431.41;;;12.69;84.57
11682;BME280;5897;42.640;23.310;2024-02-26T09:14:20;93434.28;;;12.74;84.99
11682;BME280;5897;42.640;23.310;2024-02-26T09:16:48;93433.03;;;12.84;83.06
11682;BME280;5897;42.640;23.310;2024-02-26T09:19:15;93435.94;;;12.90;83.27
11682;BME280;5897;42.640;23.310;2024-02-26T09:21:42;93425.06;;;12.81;83.54
11682;BME280;5897;42.640;23.310;2024-02-26T09:24:09;93441.97;;;13.12;82.85
11682;BME280;5897;42.640;23.310;2024-02-26T09:26:36;93431.72;;;12.98;82.52
11682;BME280;5897;42.640;23.310;2024-02-26T09:29:03;93431.13;;;13.03;81.25
11682;BME280;5897;42.640;23.310;2024-02-26T09:31:30;93411.69;;;12.86;82.00
11682;BME280;5897;42.640;23.310;2024-02-26T09:33:58;93413.47;;;13.16;80.70
11682;BME280;5897;42.640;23.310;2024-02-26T09:36:27;93419.19;;;13.27;81.66
11682;BME280;5897;42.640;23.310;2024-02-26T09:38:54;93397.50;;;13.18;79.90
11682;BME280;5897;42.640;23.310;2024-02-26T09:41:20;93417.81;;;13.32;79.00
11682;BME280;5897;42.640;23.310;2024-02-26T09:43:48;93415.72;;;13.36;78.63
11682;BME280;5897;42.640;23.310;2024-02-26T09:46:18;93418.25;;;13.39;78.51
11682;BME280;5897;42.640;23.310;2024-02-26T09:48:47;93419.19;;;13.36;79.03
11682;BME280;5897;42.640;23.310;2024-02-26T09:51:16;93411.19;;;13.33;78.18
11682;BME280;5897;42.640;23.310;2024-02-26T09:53:44;93413.00;;;13.45;78.16
11682;BME280;5897;42.640;23.310;2024-02-26T09:56:11;93402.69;;;13.58;77.71
11682;BME280;5897;42.640;23.310;2024-02-26T09:58:38;93404.53;;;13.52;78.62
11682;BME280;5897;42.640;23.310;2024-02-26T10:01:10;93382.38;;;13.44;78.36
11682;BME280;5897;42.640;23.310;2024-02-26T10:03:39;93389.72;;;13.62;77.25
11682;BME280;5897;42.640;23.310;2024-02-26T10:06:07;93397.03;;;13.79;76.64
11682;BME280;5897;42.640;23.310;2024-02-26T10:08:36;93397.38;;;13.96;75.96
11682;BME280;5897;42.640;23.310;2024-02-26T10:11:04;93385.66;;;13.90;76.08
11682;BME280;5897;42.640;23.310;2024-02-26T10:13:31;93382.38;;;13.86;77.70
11682;BME280;5897;42.640;23.310;2024-02-26T10:15:58;93389.09;;;13.99;78.46
11682;BME280;5897;42.640;23.310;2024-02-26T10:18:25;93381.25;;;14.01;75.75
11682;BME280;5897;42.640;23.310;2024-02-26T10:21:01;93377.19;;;13.97;75.71
11682;BME280;5897;42.640;23.310;2024-02-26T10:23:28;93369.25;;;13.84;76.19
11682;BME280;5897;42.640;23.310;2024-02-26T10:25:58;93366.91;;;14.01;74.87
11682;BME280;5897;42.640;23.310;2024-02-26T10:28:25;93377.81;;;13.92;74.84
11682;BME280;5897;42.640;23.310;2024-02-26T10:30:52;93365.59;;;13.87;75.00
11682;BME280;5897;42.640;23.310;2024-02-26T10:33:19;93363.72;;;14.02;74.50
11682;BME280;5897;42.640;23.310;2024-02-26T10:35:46;93367.31;;;14.08;74.42
11682;BME280;5897;42.640;23.310;2024-02-26T10:38:13;93341.91;;;13.97;73.31
11682;BME280;5897;42.640;23.310;2024-02-26T10:40:47;93363.69;;;14.11;72.46
11682;BME280;5897;42.640;23.310;2024-02-26T10:43:19;93362.91;;;14.11;72.71
11682;BME280;5897;42.640;23.310;2024-02-26T10:45:45;93357.94;;;14.09;71.98
11682;BME280;5897;42.640;23.310;2024-02-26T10:48:13;93357.91;;;14.18;71.60
11682;BME280;5897;42.640;23.310;2024-02-26T10:50:40;93349.63;;;14.13;71.59
11682;BME280;5897;42.640;23.310;2024-02-26T10:53:15;93338.31;;;14.14;71.67
11682;BME280;5897;42.640;23.310;2024-02-26T10:55:44;93360.47;;;14.13;72.49
11682;BME280;5897;42.640;23.310;2024-02-26T10:58:16;93355.84;;;14.04;72.08
11682;BME280;5897;42.640;23.310;2024-02-26T11:00:45;93361.19;;;13.99;72.05
11682;BME280;5897;42.640;23.310;2024-02-26T11:03:14;93345.72;;;14.14;71.71
11682;BME280;5897;42.640;23.310;2024-02-26T11:05:43;93344.63;;;14.20;70.81
11682;BME280;5897;42.640;23.310;2024-02-26T11:08:11;93345.38;;;14.21;69.83
11682;BME280;5897;42.640;23.310;2024-02-26T11:10:42;93342.50;;;14.15;70.76
11682;BME280;5897;42.640;23.310;2024-02-26T11:13:11;93346.88;;;14.22;69.55
11682;BME280;5897;42.640;23.310;2024-02-26T11:15:43;93361.25;;;14.13;69.52
11682;BME280;5897;42.640;23.310;2024-02-26T11:18:12;93347.81;;;14.19;69.29
11682;BME280;5897;42.640;23.310;2024-02-26T11:20:40;93350.59;;;14.33;69.30
11682;BME280;5897;42.640;23.310;2024-02-26T11:23:08;93350.59;;;14.33;69.94
11682;BME280;5897;42.640;23.310;2024-02-26T11:25:35;93360.00;;;14.47;69.07
11682;BME280;5897;42.640;23.310;2024-02-26T11:28:05;93356.94;;;14.54;68.38
11682;BME280;5897;42.640;23.310;2024-02-26T11:30:37;93346.81;;;14.54;67.86
11682;BME280;5897;42.640;23.310;2024-02-26T11:33:11;93350.28;;;14.55;67.73
11682;BME280;5897;42.640;23.310;2024-02-26T11:35:38;93332.66;;;14.50;67.43
11682;BME280;5897;42.640;23.310;2024-02-26T11:38:05;93357.53;;;14.72;67.13
11682;BME280;5897;42.640;23.310;2024-02-26T11:40:37;93316.22;;;14.45;67.42
11682;BME280;5897;42.640;23.310;2024-02-26T11:43:05;93343.84;;;14.67;67.91
11682;BME280;5897;42.640;23.310;2024-02-26T11:45:50;93335.97;;;14.69;66.61
11682;BME280;5897;42.640;23.310;2024-02-26T11:48:23;93341.16;;;14.81;66.50
11682;BME280;5897;42.640;23.310;2024-02-26T11:50:51;93337.78;;;14.86;66.82
11682;BME280;5897;42.640;23.310;2024-02-26T11:53:25;93345.56;;;14.79;66.34
11682;BME280;5897;42.640;23.310;2024-02-26T11:56:20;93343.41;;;14.83;66.62
11682;BME280;5897;42.640;23.310;2024-02-26T11:58:47;93339.84;;;14.91;66.23
11682;BME280;5897;42.640;23.310;2024-02-26T12:04:23;93335.06;;;14.86;66.21
11682;BME280;5897;42.640;23.310;2024-02-26T12:06:56;93339.56;;;14.89;64.79
11682;BME280;5897;42.640;23.310;2024-02-26T12:09:38;93346.88;;;14.98;64.64
11682;BME280;5897;42.640;23.310;2024-02-26T12:12:06;93347.19;;;15.00;64.58
11682;BME280;5897;42.640;23.310;2024-02-26T12:14:36;93337.34;;;15.02;63.70
11682;BME280;5897;42.640;23.310;2024-02-26T12:17:04;93337.34;;;15.02;64.06
11682;BME280;5897;42.640;23.310;2024-02-26T12:19:35;93349.16;;;15.14;63.19
11682;BME280;5897;42.640;23.310;2024-02-26T12:22:02;93346.38;;;15.37;62.99
11682;BME280;5897;42.640;23.310;2024-02-26T12:24:28;93345.34;;;15.35;62.39
11682;BME280;5897;42.640;23.310;2024-02-26T12:26:55;93350.50;;;15.47;61.54
11682;BME280;5897;42.640;23.310;2024-02-26T12:29:23;93355.47;;;15.49;60.73
11682;BME280;5897;42.640;23.310;2024-02-26T12:31:50;93345.06;;;15.47;61.13
11682;BME280;5897;42.640;23.310;2024-02-26T12:34:17;93352.47;;;15.47;60.83
11682;BME280;5897;42.640;23.310;2024-02-26T12:36:45;93352.56;;;15.67;59.88
11682;BME280;5897;42.640;23.310;2024-02-26T12:39:14;93361.88;;;15.80;57.90
11682;BME280;5897;42.640;23.310;2024-02-26T12:41:40;93359.16;;;15.80;58.52
11682;BME280;5897;42.640;23.310;2024-02-26T12:44:13;93352.34;;;16.05;58.14
11682;BME280;5897;42.640;23.310;2024-02-26T12:46:40;93353.53;;;16.18;56.84
11682;BME280;5897;42.640;23.310;2024-02-26T12:49:07;93348.41;;;16.40;56.20
11682;BME280;5897;42.640;23.310;2024-02-26T12:51:34;93345.22;;;16.42;55.38
11682;BME280;5897;42.640;23.310;2024-02-26T12:54:03;93342.53;;;16.47;54.63
11682;BME280;5897;42.640;23.310;2024-02-26T12:56:30;93342.88;;;16.55;54.46
11682;BME280;5897;42.640;23.310;2024-02-26T12:58:57;93339.56;;;16.45;54.66
11682;BME280;5897;42.640;23.310;2024-02-26T13:01:25;93341.19;;;16.57;53.95
11682;BME280;5897;42.640;23.310;2024-02-26T13:03:52;93325.50;;;16.32;53.58
11682;BME280;5897;42.640;23.310;2024-02-26T13:06:19;93324.94;;;16.28;53.93
11682;BME280;5897;42.640;23.310;2024-02-26T13:08:47;93339.81;;;16.47;52.10